createdAt,value
2023-04-21T00:01:47.798Z,13.77
2023-04-21T00:04:15.514Z,13.85
2023-04-21T00:06:43.068Z,14.55
2023-04-21T00:09:11.340Z,13.70
2023-04-21T00:11:38.838Z,13.30
2023-04-21T00:14:06.488Z,14.02
2023-04-21T00:16:34.081Z,13.38
2023-04-21T00:19:02.599Z,13.05
2023-04-21T00:21:30.091Z,13.40
2023-04-21T00:23:57.527Z,14.13
2023-04-21T00:26:25.057Z,12.85
2023-04-21T00:28:53.055Z,12.57
2023-04-21T00:31:20.547Z,13.15
2023-04-21T00:33:48.138Z,12.88
2023-04-21T00:36:15.677Z,13.20
2023-04-21T00:38:43.148Z,13.02
2023-04-21T00:41:10.760Z,12.18
2023-04-21T00:44:02.030Z,11.75
2023-04-21T00:46:32.339Z,11.30
2023-04-21T00:49:00.936Z,12.65
2023-04-21T00:51:29.024Z,12.07
2023-04-21T00:53:57.117Z,12.15
2023-04-21T00:56:26.322Z,11.20
2023-04-21T00:58:55.246Z,10.90
2023-04-21T01:01:22.855Z,11.55
2023-04-21T01:03:51.405Z,11.52
2023-04-21T01:06:19.318Z,11.77
2023-04-21T01:08:47.117Z,11.40
2023-04-21T01:11:16.778Z,11.07
2023-04-21T01:13:44.311Z,10.77
2023-04-21T01:16:17.147Z,10.68
2023-04-21T01:18:46.278Z,11.13
2023-04-21T01:21:14.444Z,11.07
2023-04-21T01:23:42.121Z,10.88
2023-04-21T01:26:09.739Z,10.05
2023-04-21T01:28:38.299Z,10.43
2023-04-21T01:31:06.578Z,10.73
2023-04-21T01:33:34.068Z,10.45
2023-04-21T01:36:01.947Z,10.07
2023-04-21T01:38:29.481Z,10.18
2023-04-21T01:40:59.885Z,10.27
2023-04-21T01:43:28.412Z,9.88
2023-04-21T01:45:57.373Z,10.27
2023-04-21T01:48:25.096Z,9.98
2023-04-21T01:50:52.602Z,10.20
2023-04-21T01:53:20.223Z,9.50
2023-04-21T01:55:47.716Z,9.68
2023-04-21T01:58:15.640Z,10.02
2023-04-21T02:00:43.211Z,9.48
2023-04-21T02:03:10.811Z,10.20
2023-04-21T02:05:39.068Z,9.73
2023-04-21T02:08:07.063Z,10.32
2023-04-21T02:10:34.747Z,10.63
2023-04-21T02:13:02.245Z,9.45
2023-04-21T02:15:30.662Z,9.45
2023-04-21T02:17:58.163Z,9.13
2023-04-21T02:20:26.445Z,9.30
2023-04-21T02:22:53.949Z,9.20
2023-04-21T02:25:21.500Z,9.57
2023-04-21T02:27:48.948Z,9.90
2023-04-21T02:30:17.043Z,9.38
2023-04-21T02:32:44.569Z,8.95
2023-04-21T02:35:12.687Z,8.30
2023-04-21T02:37:40.392Z,8.45
2023-04-21T02:40:08.631Z,8.07
2023-04-21T02:42:36.598Z,8.02
2023-04-21T02:45:04.385Z,8.18
2023-04-21T02:47:31.921Z,8.25
2023-04-21T02:49:59.485Z,7.95
2023-04-21T02:52:26.948Z,7.35
2023-04-21T02:54:54.613Z,7.15
2023-04-21T02:57:22.129Z,7.05
2023-04-21T02:59:49.709Z,7.10
2023-04-21T03:02:17.385Z,7.57
2023-04-21T03:04:44.921Z,6.88
2023-04-21T03:07:13.809Z,6.60
2023-04-21T03:09:41.608Z,7.30
2023-04-21T03:12:09.069Z,7.10
2023-04-21T03:14:36.880Z,6.07
2023-04-21T03:17:04.427Z,6.28
2023-04-21T03:19:33.261Z,6.57
2023-04-21T03:22:01.085Z,6.95
2023-04-21T03:24:30.137Z,6.82
2023-04-21T03:26:57.870Z,6.32
2023-04-21T03:29:25.491Z,6.90
2023-04-21T03:31:53.034Z,6.07
2023-04-21T03:34:21.652Z,6.28
2023-04-21T03:36:49.164Z,6.35
2023-04-21T03:39:20.005Z,6.40
2023-04-21T03:41:49.831Z,6.25
2023-04-21T03:44:17.404Z,6.15
2023-04-21T03:46:44.955Z,6.43
2023-04-21T03:49:12.371Z,6.40
2023-04-21T03:51:39.911Z,5.90
2023-04-21T03:54:08.598Z,5.53
2023-04-21T03:56:36.139Z,6.07
2023-04-21T03:59:03.665Z,6.10
2023-04-21T04:01:31.316Z,5.50
2023-04-21T04:03:58.924Z,5.50
2023-04-21T04:06:26.724Z,5.78
2023-04-21T04:08:54.473Z,5.43
2023-04-21T04:11:21.911Z,5.43
2023-04-21T04:13:49.324Z,5.65
2023-04-21T04:16:16.993Z,5.57
2023-04-21T04:18:45.778Z,5.93
2023-04-21T04:21:13.300Z,5.35
2023-04-21T04:23:40.768Z,5.15
2023-04-21T04:26:09.663Z,4.78
2023-04-21T04:28:38.362Z,5.32
2023-04-21T04:31:06.324Z,5.78
2023-04-21T04:33:33.966Z,5.20
2023-04-21T04:36:01.965Z,4.78
2023-04-21T04:38:30.495Z,4.90
2023-04-21T04:40:58.996Z,4.90
2023-04-21T04:43:26.504Z,5.07
2023-04-21T04:45:54.109Z,4.93
2023-04-21T04:48:21.664Z,5.00
2023-04-21T04:50:49.202Z,4.60
2023-04-21T04:53:16.888Z,4.88
2023-04-21T04:55:44.359Z,4.75
2023-04-21T04:58:11.864Z,4.55
2023-04-21T05:00:39.408Z,4.70
2023-04-21T05:03:07.068Z,4.10
2023-04-21T05:05:34.677Z,4.65
2023-04-21T05:08:02.165Z,4.10
2023-04-21T05:10:29.749Z,4.53
2023-04-21T05:12:57.167Z,4.22
2023-04-21T05:15:24.733Z,4.07
2023-04-21T05:17:52.314Z,4.35
2023-04-21T05:20:19.971Z,4.55
2023-04-21T05:22:47.622Z,4.32
2023-04-21T05:25:16.135Z,4.45
2023-04-21T05:27:43.894Z,4.38
2023-04-21T05:30:11.807Z,4.55
2023-04-21T05:32:39.379Z,4.20
2023-04-21T05:35:07.436Z,4.57
2023-04-21T05:37:35.323Z,4.10
2023-04-21T05:40:02.852Z,3.83
2023-04-21T05:42:30.543Z,3.80
2023-04-21T05:44:58.303Z,4.15
2023-04-21T05:47:25.930Z,3.90
2023-04-21T05:49:54.076Z,3.97
2023-04-21T05:52:22.018Z,3.75
2023-04-21T05:54:49.587Z,4.05
2023-04-21T05:57:17.967Z,4.40
2023-04-21T05:59:45.642Z,4.03
2023-04-21T06:02:13.235Z,3.90
2023-04-21T06:04:41.183Z,4.22
2023-04-21T06:07:10.443Z,4.30
2023-04-21T06:09:38.487Z,4.78
2023-04-21T06:12:06.447Z,3.92
2023-04-21T06:14:33.945Z,4.40
2023-04-21T06:17:01.573Z,4.28
2023-04-21T06:19:28.997Z,4.55
2023-04-21T06:21:57.694Z,4.75
2023-04-21T06:24:25.756Z,5.88
2023-04-21T06:26:53.571Z,5.35
2023-04-21T06:29:21.241Z,5.00
2023-04-21T06:31:48.755Z,4.60
2023-04-21T06:34:17.142Z,4.40
2023-04-21T06:36:44.927Z,4.90
2023-04-21T06:39:12.493Z,4.70
2023-04-21T06:41:40.075Z,4.38
2023-04-21T06:44:08.127Z,4.32
2023-04-21T06:46:35.778Z,4.75
2023-04-21T06:49:03.354Z,5.43
2023-04-21T06:51:30.749Z,4.57
2023-04-21T06:53:58.313Z,4.60
2023-04-21T06:56:27.837Z,5.07
2023-04-21T06:58:56.179Z,4.35
2023-04-21T07:01:26.671Z,4.32
2023-04-21T07:03:54.293Z,4.63
2023-04-21T07:06:21.833Z,5.25
2023-04-21T07:08:49.308Z,5.95
2023-04-21T07:11:16.883Z,5.85
2023-04-21T07:13:44.387Z,6.07
2023-04-21T07:16:11.995Z,6.63
2023-04-21T07:18:40.772Z,6.28
2023-04-21T07:21:08.430Z,5.20
2023-04-21T07:23:37.018Z,5.57
2023-04-21T07:26:04.492Z,4.85
2023-04-21T07:28:31.992Z,4.60
2023-04-21T07:31:01.553Z,4.32
2023-04-21T07:33:30.527Z,4.43
2023-04-21T07:35:58.232Z,4.30
2023-04-21T07:38:27.121Z,5.10
2023-04-21T07:40:54.933Z,4.78
2023-04-21T07:43:22.539Z,4.30
2023-04-21T07:45:51.983Z,3.92
2023-04-21T07:48:19.669Z,4.50
2023-04-21T07:50:47.088Z,4.18
2023-04-21T07:53:14.548Z,3.75
2023-04-21T07:55:41.976Z,3.47
2023-04-21T07:58:10.538Z,3.97
2023-04-21T08:00:38.007Z,3.30
2023-04-21T08:03:05.681Z,3.78
2023-04-21T08:05:35.854Z,3.10
2023-04-21T08:08:07.459Z,3.50
2023-04-21T08:10:34.947Z,3.05
2023-04-21T08:13:03.555Z,3.70
2023-04-21T08:15:31.181Z,3.33
2023-04-21T08:17:58.705Z,3.22
2023-04-21T08:20:26.197Z,2.92
2023-04-21T08:22:53.785Z,3.45
2023-04-21T08:25:21.397Z,3.33
2023-04-21T08:27:48.971Z,3.33
2023-04-21T08:30:16.917Z,3.42
2023-04-21T08:32:44.638Z,3.55
2023-04-21T08:35:12.209Z,3.92
2023-04-21T08:37:40.404Z,3.53
2023-04-21T08:40:08.374Z,3.75
2023-04-21T08:42:37.147Z,3.25
2023-04-21T08:45:05.560Z,4.60
2023-04-21T08:47:33.716Z,3.80
2023-04-21T08:50:01.219Z,3.47
2023-04-21T08:52:28.746Z,3.00
2023-04-21T08:54:56.862Z,3.40
2023-04-21T08:57:24.335Z,3.47
2023-04-21T08:59:51.828Z,3.58
2023-04-21T09:02:19.796Z,2.90
2023-04-21T09:04:50.744Z,2.85
2023-04-21T09:07:33.097Z,2.80
2023-04-21T09:10:01.557Z,2.90
2023-04-21T09:12:29.854Z,3.30
2023-04-21T09:14:58.343Z,3.53
2023-04-21T09:17:34.124Z,3.00
2023-04-21T09:20:21.946Z,3.78
2023-04-21T09:22:51.457Z,3.13
2023-04-21T09:25:22.583Z,3.60
2023-04-21T09:27:50.210Z,3.05
2023-04-21T09:30:23.069Z,2.75
2023-04-21T09:32:50.730Z,2.97
2023-04-21T09:35:18.323Z,3.08
2023-04-21T09:37:46.101Z,2.38
2023-04-21T09:40:19.193Z,2.42
2023-04-21T09:42:47.025Z,3.35
2023-04-21T09:47:50.255Z,3.05
2023-04-21T09:50:39.254Z,2.75
2023-04-21T09:53:17.914Z,2.67
2023-04-21T09:55:49.784Z,3.10
2023-04-21T09:58:24.161Z,3.03
2023-04-21T10:00:53.757Z,3.25
2023-04-21T10:03:27.086Z,2.85
2023-04-21T10:05:55.762Z,2.90
2023-04-21T10:08:23.541Z,3.22
2023-04-21T10:10:53.053Z,2.88
2023-04-21T10:13:22.359Z,2.85
2023-04-21T10:16:01.154Z,2.83
2023-04-21T10:18:29.281Z,2.80
2023-04-21T10:20:58.025Z,3.15
2023-04-21T10:23:42.234Z,2.30
2023-04-21T10:28:43.124Z,3.17
2023-04-21T10:31:20.853Z,3.00
2023-04-21T10:34:06.832Z,2.78
2023-04-21T10:36:36.105Z,2.45
2023-04-21T10:39:04.775Z,2.80
2023-04-21T10:41:36.370Z,3.28
2023-04-21T10:44:24.754Z,3.60
2023-04-21T10:46:53.982Z,3.08
2023-04-21T10:49:26.400Z,2.85
2023-04-21T10:52:00.034Z,2.50
2023-04-21T10:54:31.862Z,2.40
2023-04-21T10:56:59.703Z,2.45
2023-04-21T10:59:27.354Z,2.80
2023-04-21T11:01:55.259Z,2.40
2023-04-21T11:04:23.693Z,2.30
2023-04-21T11:07:08.214Z,3.03
2023-04-21T11:09:36.952Z,3.00
2023-04-21T11:12:18.421Z,2.60
2023-04-21T11:14:50.233Z,2.63
2023-04-21T11:17:19.676Z,2.65
2023-04-21T11:19:50.827Z,2.50
2023-04-21T11:22:20.950Z,3.70
2023-04-21T11:24:51.021Z,3.25
2023-04-21T11:27:19.383Z,3.40
2023-04-21T11:29:47.066Z,2.92
2023-04-21T11:32:15.643Z,2.90
2023-04-21T11:34:43.522Z,2.88
2023-04-21T11:37:16.471Z,2.65
2023-04-21T11:39:45.063Z,3.50
2023-04-21T11:42:20.640Z,3.20
2023-04-21T11:44:48.244Z,2.85
2023-04-21T11:47:21.089Z,3.30
2023-04-21T11:49:56.895Z,3.28
2023-04-21T11:52:36.133Z,2.75
2023-04-21T11:55:12.387Z,3.10
2023-04-21T11:57:40.976Z,2.70
2023-04-21T12:00:19.295Z,2.97
2023-04-21T12:02:56.453Z,2.70
2023-04-21T12:05:24.499Z,2.53
2023-04-21T12:07:56.268Z,2.83
2023-04-21T12:10:23.958Z,2.80
2023-04-21T12:12:51.943Z,3.15
2023-04-21T12:15:21.724Z,3.28
2023-04-21T12:17:51.873Z,2.60
2023-04-21T12:20:22.444Z,2.25
2023-04-21T12:22:50.653Z,2.42
2023-04-21T12:25:18.174Z,2.30
2023-04-21T12:27:53.420Z,2.70
2023-04-21T12:30:21.713Z,2.58
2023-04-21T12:32:49.302Z,2.70
2023-04-21T12:35:17.130Z,2.60
2023-04-21T12:37:45.264Z,2.13
2023-04-21T12:40:13.209Z,2.72
2023-04-21T12:42:40.855Z,2.85
2023-04-21T12:45:08.878Z,2.33
2023-04-21T12:47:37.733Z,3.20
2023-04-21T12:50:05.763Z,3.20
2023-04-21T12:52:33.242Z,2.75
2023-04-21T12:55:00.930Z,2.50
2023-04-21T12:57:29.127Z,2.85
2023-04-21T12:59:56.728Z,2.80
2023-04-21T13:02:24.293Z,2.67
2023-04-21T13:04:52.182Z,2.42
2023-04-21T13:07:22.238Z,2.72
2023-04-21T13:09:49.769Z,2.47
2023-04-21T13:12:17.476Z,2.70
2023-04-21T13:14:44.949Z,2.28
2023-04-21T13:17:12.724Z,2.28
2023-04-21T13:19:40.322Z,2.70
2023-04-21T13:22:07.811Z,2.85
2023-04-21T13:24:35.454Z,2.30
2023-04-21T13:27:02.879Z,2.40
2023-04-21T13:29:34.111Z,2.38
2023-04-21T13:32:06.622Z,2.97
2023-04-21T13:34:34.997Z,2.72
2023-04-21T13:37:02.659Z,2.40
2023-04-21T13:39:30.434Z,2.55
2023-04-21T13:41:58.219Z,2.90
2023-04-21T13:44:25.853Z,2.22
2023-04-21T13:46:54.204Z,2.33
2023-04-21T13:49:21.902Z,2.47
2023-04-21T13:51:49.376Z,2.33
2023-04-21T13:54:16.967Z,2.60
2023-04-21T13:56:44.547Z,2.60
2023-04-21T13:59:14.970Z,2.58
2023-04-21T14:01:42.683Z,2.40
2023-04-21T14:04:10.376Z,2.53
2023-04-21T14:06:38.056Z,2.40
2023-04-21T14:09:06.629Z,2.40
2023-04-21T14:11:34.270Z,2.42
2023-04-21T14:14:09.393Z,2.53
2023-04-21T14:16:38.353Z,2.60
2023-04-21T14:19:06.635Z,2.60
2023-04-21T14:21:35.337Z,2.55
2023-04-21T14:24:02.850Z,3.15
2023-04-21T14:26:30.516Z,2.78
2023-04-21T14:28:59.769Z,2.83
2023-04-21T14:31:28.083Z,2.67
2023-04-21T14:33:56.150Z,2.97
2023-04-21T14:36:23.654Z,2.72
2023-04-21T14:38:51.188Z,3.53
2023-04-21T14:41:18.979Z,2.90
2023-04-21T14:43:47.682Z,2.85
2023-04-21T14:46:17.200Z,3.20
2023-04-21T14:48:44.969Z,3.08
2023-04-21T14:51:12.520Z,2.50
2023-04-21T14:53:40.810Z,2.75
2023-04-21T14:56:08.468Z,2.55
2023-04-21T14:58:35.908Z,3.00
2023-04-21T15:01:03.652Z,3.10
2023-04-21T15:03:31.747Z,2.85
2023-04-21T15:05:59.319Z,3.28
2023-04-21T15:08:27.771Z,3.33
2023-04-21T15:10:56.482Z,3.13
2023-04-21T15:13:24.188Z,2.75
2023-04-21T15:15:52.347Z,2.65
2023-04-21T15:18:21.200Z,2.70
2023-04-21T15:20:48.680Z,2.67
2023-04-21T15:23:16.298Z,2.78
2023-04-21T15:25:43.970Z,3.17
2023-04-21T15:28:12.941Z,3.15
2023-04-21T15:30:40.567Z,2.88
2023-04-21T15:33:08.223Z,2.72
2023-04-21T15:35:36.500Z,2.80
2023-04-21T15:38:04.679Z,2.35
2023-04-21T15:40:32.347Z,3.05
2023-04-21T15:42:59.840Z,3.00
2023-04-21T15:45:27.369Z,2.80
2023-04-21T15:47:55.426Z,2.92
2023-04-21T15:50:23.037Z,2.92
2023-04-21T15:52:50.567Z,2.90
2023-04-21T15:55:18.186Z,2.85
2023-04-21T15:57:46.052Z,2.78
2023-04-21T16:00:14.690Z,2.60
2023-04-21T16:02:42.432Z,2.92
2023-04-21T16:05:10.376Z,2.58
2023-04-21T16:07:37.974Z,3.00
2023-04-21T16:10:05.943Z,2.97
2023-04-21T16:12:33.589Z,2.53
2023-04-21T16:15:16.081Z,2.75
2023-04-21T16:17:49.592Z,2.80
2023-04-21T16:20:17.178Z,3.15
2023-04-21T16:22:44.847Z,2.72
2023-04-21T16:25:14.013Z,3.30
2023-04-21T16:27:41.684Z,2.70
2023-04-21T16:30:09.568Z,2.65
2023-04-21T16:32:37.198Z,3.25
2023-04-21T16:35:08.222Z,2.97
2023-04-21T16:37:37.342Z,3.15
2023-04-21T16:40:08.997Z,2.90
2023-04-21T16:42:37.144Z,2.97
2023-04-21T16:45:05.980Z,2.42
2023-04-21T16:47:41.705Z,3.08
2023-04-21T16:50:10.309Z,3.03
2023-04-21T16:52:38.325Z,3.35
2023-04-21T16:55:06.336Z,3.38
2023-04-21T16:57:34.333Z,2.70
2023-04-21T17:00:02.261Z,3.20
2023-04-21T17:02:29.796Z,3.08
2023-04-21T17:04:57.470Z,2.83
2023-04-21T17:07:25.010Z,3.13
2023-04-21T17:09:52.584Z,3.13
2023-04-21T17:12:20.086Z,2.92
2023-04-21T17:14:48.684Z,2.65
2023-04-21T17:17:16.264Z,3.38
2023-04-21T17:19:43.798Z,3.05
2023-04-21T17:22:11.260Z,3.80
2023-04-21T17:24:51.565Z,4.05
2023-04-21T17:27:21.565Z,4.35
2023-04-21T17:29:49.116Z,3.80
2023-04-21T17:32:16.996Z,4.32
2023-04-21T17:34:44.536Z,4.07
2023-04-21T17:37:12.126Z,4.07
2023-04-21T17:39:39.675Z,3.30
2023-04-21T17:42:07.217Z,4.30
2023-04-21T17:44:34.991Z,4.07
2023-04-21T17:47:04.145Z,3.40
2023-04-21T17:49:31.847Z,3.53
2023-04-21T17:51:59.387Z,3.50
2023-04-21T17:54:26.903Z,3.83
2023-04-21T17:56:54.438Z,3.95
2023-04-21T17:59:22.490Z,3.97
2023-04-21T18:01:50.071Z,4.28
2023-04-21T18:04:17.883Z,3.83
2023-04-21T18:06:45.886Z,3.83
2023-04-21T18:09:13.336Z,3.30
2023-04-21T18:11:41.790Z,3.47
2023-04-21T18:14:09.774Z,3.47
2023-04-21T18:16:37.334Z,3.42
2023-04-21T18:19:05.179Z,3.40
2023-04-21T18:21:33.556Z,3.53
2023-04-21T18:24:01.374Z,4.45
2023-04-21T18:26:28.959Z,4.57
2023-04-21T18:28:59.645Z,5.05
2023-04-21T18:31:28.694Z,5.75
2023-04-21T18:33:56.606Z,6.63
2023-04-21T18:36:24.312Z,6.30
2023-04-21T18:38:51.866Z,5.72
2023-04-21T18:41:19.830Z,5.55
2023-04-21T18:43:47.414Z,6.28
2023-04-21T18:46:14.915Z,5.97
2023-04-21T18:48:42.347Z,6.05
2023-04-21T18:51:09.868Z,5.25
2023-04-21T18:53:37.362Z,6.03
2023-04-21T18:56:04.957Z,6.65
2023-04-21T18:58:32.525Z,6.85
2023-04-21T19:01:00.075Z,6.00
2023-04-21T19:03:27.784Z,5.88
2023-04-21T19:05:55.455Z,5.85
2023-04-21T19:08:38.235Z,6.00
2023-04-21T19:11:10.421Z,5.57
2023-04-21T19:13:37.922Z,5.57
2023-04-21T19:16:05.634Z,5.75
2023-04-21T19:18:33.239Z,5.80
2023-04-21T19:21:00.929Z,4.85
2023-04-21T19:23:28.364Z,5.80
2023-04-21T19:25:57.568Z,6.00
2023-04-21T19:28:24.998Z,5.70
2023-04-21T19:30:52.486Z,4.60
2023-04-21T19:33:20.018Z,4.72
2023-04-21T19:35:47.588Z,4.28
2023-04-21T19:38:15.281Z,3.92
2023-04-21T19:40:45.034Z,3.78
2023-04-21T19:43:13.038Z,3.65
2023-04-21T19:45:40.775Z,4.13
2023-04-21T19:48:08.332Z,4.18
2023-04-21T19:50:36.594Z,4.38
2023-04-21T19:53:04.270Z,4.07
2023-04-21T19:55:32.071Z,4.28
2023-04-21T19:57:59.584Z,4.60
2023-04-21T20:00:27.164Z,4.68
2023-04-21T20:02:54.774Z,5.53
2023-04-21T20:05:22.446Z,5.20
2023-04-21T20:07:50.065Z,5.10
2023-04-21T20:10:17.691Z,5.13
2023-04-21T20:12:45.229Z,4.82
2023-04-21T20:15:13.504Z,4.50
2023-04-21T20:17:41.991Z,4.00
2023-04-21T20:20:09.805Z,4.75
2023-04-21T20:22:37.460Z,5.00
2023-04-21T20:25:06.101Z,4.68
2023-04-21T20:27:34.086Z,4.30
2023-04-21T20:30:01.640Z,4.85
2023-04-21T20:32:29.195Z,3.50
2023-04-21T20:34:56.689Z,4.05
2023-04-21T20:37:24.673Z,3.88
2023-04-21T20:39:52.513Z,3.80
2023-04-21T20:42:21.963Z,4.38
2023-04-21T20:44:49.506Z,4.15
2023-04-21T20:47:17.642Z,4.38
2023-04-21T20:49:47.324Z,4.10
2023-04-21T20:52:15.101Z,5.10
2023-04-21T20:54:42.653Z,4.20
2023-04-21T20:57:10.693Z,4.13
2023-04-21T20:59:38.681Z,4.10
2023-04-21T21:02:06.465Z,4.22
2023-04-21T21:04:34.081Z,4.05
2023-04-21T21:07:02.009Z,4.03
2023-04-21T21:09:30.641Z,4.10
2023-04-21T21:11:58.141Z,4.43
2023-04-21T21:14:25.552Z,4.60
2023-04-21T21:16:54.709Z,3.97
2023-04-21T21:19:22.404Z,4.22
2023-04-21T21:21:49.861Z,4.32
2023-04-21T21:24:17.369Z,4.53
2023-04-21T21:26:44.831Z,4.85
2023-04-21T21:29:12.309Z,4.85
2023-04-21T21:31:40.005Z,4.55
2023-04-21T21:34:07.516Z,4.32
2023-04-21T21:36:35.184Z,4.78
2023-04-21T21:39:02.616Z,5.20
2023-04-21T21:41:30.159Z,5.20
2023-04-21T21:43:57.570Z,4.88
2023-04-21T21:46:25.232Z,4.97
2023-04-21T21:48:52.650Z,4.88
2023-04-21T21:51:20.195Z,5.22
2023-04-21T21:53:47.586Z,5.55
2023-04-21T21:56:15.615Z,5.78
2023-04-21T21:58:43.139Z,5.95
2023-04-21T22:01:10.615Z,6.10
2023-04-21T22:03:38.196Z,5.93
2023-04-21T22:06:06.352Z,5.63
2023-04-21T22:08:33.763Z,5.97
2023-04-21T22:11:04.091Z,6.47
2023-04-21T22:13:32.201Z,6.43
2023-04-21T22:15:59.651Z,6.63
2023-04-21T22:18:27.238Z,6.93
2023-04-21T22:20:54.980Z,6.38
2023-04-21T22:27:35.048Z,7.18
2023-04-21T22:30:03.536Z,6.70
2023-04-21T22:32:32.403Z,6.95
2023-04-21T22:35:00.666Z,7.03
2023-04-21T22:37:28.321Z,7.32
2023-04-21T22:39:57.558Z,7.07
2023-04-21T22:42:25.141Z,7.20
2023-04-21T22:44:52.816Z,7.07
2023-04-21T22:47:20.648Z,7.32
2023-04-21T22:49:48.402Z,7.60
2023-04-21T22:52:15.842Z,6.65
2023-04-21T22:54:43.323Z,6.75
2023-04-21T22:57:10.899Z,6.50
2023-04-21T22:59:38.815Z,7.20
2023-04-21T23:02:06.591Z,8.40
2023-04-21T23:04:35.399Z,7.50
2023-04-21T23:07:03.330Z,7.55
2023-04-21T23:09:30.829Z,7.70
2023-04-21T23:11:58.701Z,7.95
2023-04-21T23:14:26.333Z,7.90
2023-04-21T23:16:53.878Z,9.07
2023-04-21T23:19:21.501Z,9.10
2023-04-21T23:21:49.004Z,8.18
2023-04-21T23:24:16.480Z,8.38
2023-04-21T23:26:44.005Z,7.82
2023-04-21T23:29:11.487Z,8.70
2023-04-21T23:31:39.186Z,9.20
2023-04-21T23:34:07.273Z,7.45
2023-04-21T23:36:34.653Z,8.13
2023-04-21T23:39:02.179Z,8.25
2023-04-21T23:41:29.648Z,7.85
2023-04-21T23:43:57.114Z,8.30
2023-04-21T23:46:24.692Z,8.13
2023-04-21T23:48:52.241Z,8.82
2023-04-21T23:51:19.878Z,8.48
2023-04-21T23:53:47.511Z,8.02
2023-04-21T23:56:14.990Z,8.13
2023-04-21T23:58:42.464Z,8.30
